Time;durP1;ratioP1;P1;durP2;ratioP2;P2;SDS_P1;SDS_P2;PMS_P1;PMS_P2;Temp;Humidity;BMP_temperature;BMP_pressure;BME280_temperature;BME280_humidity;BME280_pressure;Samples;Min_cycle;Max_cycle;Signal;HPM_P1;HPM_P2
2021/03/10 00:02:12;;;;;;;1.47;0.57;;;11.80;99.90;;;;;;5070390;28;20617;-82
2021/03/10 00:04:54;;;;;;;0.63;0.50;;;11.40;99.90;;;;;;5077412;28;20261;-81
2021/03/10 00:07:24;;;;;;;3.13;0.90;;;11.30;99.90;;;;;;5091292;28;20976;-81
2021/03/10 00:09:57;;;;;;;2.50;0.60;;;11.40;99.90;;;;;;5092622;28;20214;-81
2021/03/10 00:12:26;;;;;;;0.57;0.50;;;11.30;99.90;;;;;;5084876;28;20223;-81
2021/03/10 00:14:57;;;;;;;0.93;0.50;;;11.20;99.90;;;;;;5082989;28;20573;-81
2021/03/10 00:17:27;;;;;;;0.47;0.47;;;10.70;99.90;;;;;;5074017;28;20207;-83
2021/03/10 00:19:57;;;;;;;0.63;0.47;;;10.30;99.90;;;;;;5072626;28;20214;-82
2021/03/10 00:22:26;;;;;;;1.37;0.40;;;10.10;99.90;;;;;;5093326;28;20618;-82
2021/03/10 00:24:56;;;;;;;2.00;0.47;;;9.60;99.90;;;;;;5090981;28;20284;-82
2021/03/10 00:27:26;;;;;;;1.10;0.53;;;8.80;99.90;;;;;;5071383;28;20203;-81
2021/03/10 00:29:57;;;;;;;1.53;1.03;;;8.40;99.90;;;;;;5082172;28;20226;-82
2021/03/10 00:32:28;;;;;;;2.47;0.70;;;8.20;99.90;;;;;;5077301;28;20219;-84
2021/03/10 00:34:59;;;;;;;1.87;0.80;;;7.80;99.90;;;;;;5088452;28;20280;-82
2021/03/10 00:37:29;;;;;;;3.50;0.90;;;7.80;99.90;;;;;;5086925;28;20199;-80
2021/03/10 00:39:59;;;;;;;4.63;0.90;;;7.80;99.90;;;;;;5104133;28;20253;-81
2021/03/10 00:42:29;;;;;;;3.57;0.63;;;7.90;99.90;;;;;;5095529;28;20370;-82
2021/03/10 00:45:00;;;;;;;0.87;0.53;;;7.90;99.90;;;;;;5092056;28;20702;-80
2021/03/10 00:47:29;;;;;;;2.83;0.90;;;8.00;99.90;;;;;;5095426;28;20225;-82
2021/03/10 00:49:59;;;;;;;1.90;0.80;;;8.00;99.90;;;;;;5094717;28;20263;-80
2021/03/10 00:52:29;;;;;;;2.00;0.90;;;8.00;99.90;;;;;;5094337;28;20302;-81
2021/03/10 00:54:59;;;;;;;0.50;0.40;;;7.90;99.90;;;;;;5092761;28;20223;-81
2021/03/10 00:57:28;;;;;;;3.77;1.70;;;7.80;99.90;;;;;;5095771;28;20292;-81
2021/03/10 01:00:10;;;;;;;5.00;1.90;;;8.00;99.90;;;;;;5095899;28;20222;-81
2021/03/10 01:03:05;;;;;;;3.40;1.90;;;8.10;99.90;;;;;;5083310;28;20207;-80
2021/03/10 01:06:25;;;;;;;2.23;1.23;;;8.20;99.90;;;;;;5083613;28;20353;-83
2021/03/10 01:08:57;;;;;;;2.87;0.87;;;8.50;99.90;;;;;;5076286;28;20564;-83
2021/03/10 01:11:34;;;;;;;1.10;0.77;;;8.70;99.90;;;;;;5097408;28;20217;-83
2021/03/10 01:14:07;;;;;;;2.97;1.00;;;8.50;99.90;;;;;;5095562;28;20554;-83
2021/03/10 01:16:48;;;;;;;2.23;0.90;;;8.50;99.90;;;;;;5096296;28;20203;-83
2021/03/10 01:19:19;;;;;;;3.67;0.93;;;8.20;99.90;;;;;;5076410;28;20223;-82
2021/03/10 01:21:50;;;;;;;4.13;1.00;;;8.10;99.90;;;;;;5078267;28;20231;-84
2021/03/10 01:24:20;;;;;;;3.47;1.00;;;8.10;99.90;;;;;;5081607;28;20819;-83
2021/03/10 01:26:50;;;;;;;1.40;0.90;;;8.10;99.90;;;;;;5086343;28;20221;-82
2021/03/10 01:29:21;;;;;;;1.83;0.97;;;8.00;99.90;;;;;;5104459;28;20266;-82
2021/03/10 01:31:56;;;;;;;4.07;0.90;;;7.80;99.90;;;;;;5114481;28;20290;-82
2021/03/10 01:34:27;;;;;;;2.17;1.03;;;7.80;99.90;;;;;;5110317;28;20260;-83
2021/03/10 01:36:57;;;;;;;1.93;0.93;;;7.70;99.90;;;;;;5101959;28;20663;-84
2021/03/10 01:39:27;;;;;;;1.40;0.80;;;7.60;99.90;;;;;;5098680;28;20244;-83
2021/03/10 01:41:59;;;;;;;1.67;1.07;;;7.60;99.90;;;;;;5091762;28;20199;-83
2021/03/10 01:44:31;;;;;;;3.00;0.80;;;7.50;99.90;;;;;;5085400;28;20226;-89
2021/03/10 01:47:14;;;;;;;1.50;0.97;;;7.50;99.90;;;;;;5105671;28;20199;-89
2021/03/10 01:50:10;;;;;;;1.97;0.93;;;7.40;99.90;;;;;;5078925;28;20205;-88
2021/03/10 01:52:41;;;;;;;1.67;0.80;;;7.30;99.90;;;;;;5093754;28;20218;-87
2021/03/10 01:55:16;;;;;;;2.23;0.70;;;7.30;99.90;;;;;;5078224;28;20204;-87
2021/03/10 01:58:29;;;;;;;5.97;1.00;;;7.30;99.90;;;;;;5078614;28;20203;-89
2021/03/10 02:01:17;;;;;;;;;;;;;;;;;;;;;
2021/03/10 02:07:39;;;;;;;1.93;0.70;;;7.40;99.90;;;;;;5088005;28;20227;-86
2021/03/10 02:10:17;;;;;;;2.43;0.90;;;7.40;99.90;;;;;;5097326;28;20206;-86
2021/03/10 02:12:56;;;;;;;1.80;0.90;;;7.50;99.90;;;;;;5076900;28;20207;-86
2021/03/10 02:15:37;;;;;;;5.80;1.40;;;7.50;99.90;;;;;;5087211;28;20266;-87
2021/03/10 02:18:16;;;;;;;3.10;1.70;;;7.40;99.90;;;;;;5096138;28;20210;-86
2021/03/10 02:20:50;;;;;;;3.07;1.10;;;7.40;99.90;;;;;;5096845;28;20276;-87
2021/03/10 02:23:57;;;;;;;2.23;1.00;;;7.40;99.90;;;;;;5095391;28;20289;-87
2021/03/10 02:26:55;;;;;;;3.80;1.40;;;7.30;99.90;;;;;;5092798;28;20231;-86
2021/03/10 02:29:41;;;;;;;3.40;1.30;;;7.30;99.90;;;;;;5054132;28;20215;-88
2021/03/10 02:32:15;;;;;;;2.30;1.00;;;7.20;99.90;;;;;;5076873;28;20211;-85
2021/03/10 02:34:55;;;;;;;1.33;0.87;;;7.10;99.90;;;;;;5076318;28;20261;-87
2021/03/10 02:37:36;;;;;;;3.40;1.57;;;7.00;99.90;;;;;;5061404;28;20213;-85
2021/03/10 02:40:18;;;;;;;2.10;1.30;;;7.00;99.90;;;;;;5080188;28;20693;-87
2021/03/10 02:42:54;;;;;;;3.97;2.17;;;6.90;99.90;;;;;;5089933;28;20549;-87
2021/03/10 02:45:28;;;;;;;3.77;2.30;;;6.80;99.90;;;;;;5097051;28;20222;-87
2021/03/10 02:48:05;;;;;;;3.00;1.80;;;6.70;99.90;;;;;;5097312;28;20210;-86
2021/03/10 02:50:36;;;;;;;2.97;2.20;;;6.70;99.90;;;;;;5098842;28;20218;-87
2021/03/10 02:53:13;;;;;;;3.83;2.13;;;6.50;99.90;;;;;;5099189;28;20223;-87
2021/03/10 02:55:49;;;;;;;4.47;2.67;;;6.40;99.90;;;;;;5099530;28;20207;-87
2021/03/10 02:58:22;;;;;;;4.70;3.00;;;6.30;99.90;;;;;;5087768;28;20208;-87
2021/03/10 03:00:54;;;;;;;6.60;4.00;;;6.10;99.90;;;;;;5096789;28;20227;-87
2021/03/10 03:03:26;;;;;;;6.43;4.00;;;6.10;99.90;;;;;;5088093;28;20233;-87
2021/03/10 03:05:58;;;;;;;7.23;4.37;;;6.00;99.90;;;;;;5097827;28;20258;-86
2021/03/10 03:08:31;;;;;;;4.17;2.63;;;5.90;99.90;;;;;;5097867;28;20205;-86
2021/03/10 03:11:09;;;;;;;5.57;2.73;;;5.80;99.90;;;;;;5077092;28;20206;-85
2021/03/10 03:13:40;;;;;;;5.93;3.73;;;5.70;99.90;;;;;;5096827;28;20217;-86
2021/03/10 03:16:29;;;;;;;4.97;3.10;;;5.70;99.90;;;;;;5087171;28;20200;-85
2021/03/10 03:19:08;;;;;;;6.20;3.40;;;5.60;99.90;;;;;;5089040;28;20206;-86
2021/03/10 03:21:46;;;;;;;4.73;3.53;;;5.50;99.90;;;;;;5094962;28;20703;-86
2021/03/10 03:24:21;;;;;;;4.37;3.60;;;5.50;99.90;;;;;;5077577;28;20203;-85
2021/03/10 03:26:57;;;;;;;5.83;3.83;;;5.40;99.90;;;;;;5093776;28;20210;-85
2021/03/10 03:29:29;;;;;;;3.97;3.40;;;5.30;99.90;;;;;;5082946;28;20261;-85
2021/03/10 03:32:05;;;;;;;4.27;3.53;;;5.30;99.90;;;;;;5082514;28;20230;-86
2021/03/10 03:34:42;;;;;;;5.13;4.30;;;5.20;99.90;;;;;;5089569;28;20199;-86
2021/03/10 03:37:17;;;;;;;4.33;3.90;;;5.10;99.90;;;;;;5084461;28;20649;-88
2021/03/10 03:39:56;;;;;;;6.93;4.77;;;5.10;99.90;;;;;;5090714;28;20293;-86
2021/03/10 03:42:28;;;;;;;7.33;4.73;;;5.10;99.90;;;;;;5091031;28;20203;-86
2021/03/10 03:45:04;;;;;;;4.87;4.33;;;5.10;99.90;;;;;;5091840;28;20238;-86
2021/03/10 03:47:49;;;;;;;6.40;4.77;;;5.10;99.90;;;;;;5099509;28;20206;-87
2021/03/10 03:50:25;;;;;;;3.43;3.13;;;5.00;99.90;;;;;;5079358;28;20207;-86
2021/03/10 03:52:55;;;;;;;4.63;3.50;;;5.00;99.90;;;;;;5087473;28;20213;-87
2021/03/10 03:55:29;;;;;;;6.10;4.57;;;4.90;99.90;;;;;;5098851;28;20207;-87
2021/03/10 03:58:17;;;;;;;4.17;3.70;;;4.90;99.90;;;;;;5091251;28;20215;-86
2021/03/10 04:00:53;;;;;;;5.10;3.30;;;4.90;99.90;;;;;;5105339;28;20214;-86
2021/03/10 04:03:30;;;;;;;3.20;2.63;;;4.90;99.90;;;;;;5107584;28;20241;-86
2021/03/10 04:06:06;;;;;;;2.13;1.57;;;4.80;99.90;;;;;;5089189;28;20660;-86
2021/03/10 04:08:47;;;;;;;4.10;1.60;;;4.80;99.90;;;;;;5077877;28;20199;-86
2021/03/10 04:11:22;;;;;;;2.43;1.73;;;4.80;99.90;;;;;;5085719;28;20213;-85
2021/03/10 04:14:01;;;;;;;2.67;1.17;;;4.70;99.90;;;;;;5090165;28;20263;-85
2021/03/10 04:16:37;;;;;;;2.27;1.17;;;4.70;99.90;;;;;;5096547;28;20238;-85
2021/03/10 04:19:15;;;;;;;2.07;1.50;;;4.60;99.90;;;;;;5095183;28;20222;-85
2021/03/10 04:21:59;;;;;;;1.13;0.90;;;4.60;99.90;;;;;;5103070;28;20207;-85
2021/03/10 04:24:36;;;;;;;2.40;1.30;;;4.60;99.90;;;;;;5082945;28;20266;-84
2021/03/10 04:27:10;;;;;;;1.93;1.50;;;4.50;99.90;;;;;;5080560;28;20362;-86
2021/03/10 04:30:01;;;;;;;;;;;;;;;;;;;;;
2021/03/10 04:32:40;;;;;;;2.80;1.90;;;4.40;99.90;;;;;;5095471;28;20329;-85
2021/03/10 04:35:22;;;;;;;3.90;1.80;;;4.40;99.90;;;;;;5095401;28;20207;-85
2021/03/10 04:38:02;;;;;;;2.60;1.97;;;4.30;99.90;;;;;;5099017;28;20266;-85
2021/03/10 04:40:36;;;;;;;3.33;2.10;;;4.20;99.90;;;;;;5100727;28;20302;-85
2021/03/10 04:43:10;;;;;;;2.73;2.10;;;4.20;99.90;;;;;;5096632;28;20222;-85
2021/03/10 04:45:45;;;;;;;3.40;1.83;;;4.20;99.90;;;;;;5088780;28;20229;-86
2021/03/10 04:48:27;;;;;;;3.23;2.20;;;4.10;99.90;;;;;;5101783;28;20280;-86
2021/03/10 04:51:11;;;;;;;3.20;2.10;;;4.00;99.90;;;;;;5096412;28;20590;-86
2021/03/10 04:53:49;;;;;;;3.33;2.10;;;4.00;99.90;;;;;;5096757;28;20207;-87
2021/03/10 04:56:22;;;;;;;3.40;2.13;;;4.00;99.90;;;;;;5096788;28;20263;-87
2021/03/10 04:58:52;;;;;;;3.10;2.40;;;4.00;99.90;;;;;;5100279;28;20207;-86
2021/03/10 05:01:31;;;;;;;3.70;2.27;;;4.00;99.90;;;;;;5101323;28;20237;-85
2021/03/10 05:04:04;;;;;;;2.47;2.17;;;3.90;99.90;;;;;;5096756;28;20294;-87
2021/03/10 05:06:40;;;;;;;3.57;2.37;;;3.80;99.90;;;;;;5098709;28;20314;-86
2021/03/10 05:09:16;;;;;;;3.73;2.30;;;3.80;99.90;;;;;;5085628;28;20214;-85
2021/03/10 05:11:49;;;;;;;3.13;2.23;;;3.80;99.90;;;;;;5096731;28;20203;-85
2021/03/10 05:14:19;;;;;;;3.10;2.10;;;3.80;99.90;;;;;;5095708;28;20583;-85
2021/03/10 05:16:53;;;;;;;2.90;2.03;;;3.80;99.90;;;;;;5082105;28;20210;-84
2021/03/10 05:19:23;;;;;;;2.60;1.10;;;3.70;99.90;;;;;;5095774;28;20256;-85
2021/03/10 05:22:00;;;;;;;2.53;1.70;;;3.70;99.90;;;;;;5095979;28;20298;-84
2021/03/10 05:24:33;;;;;;;3.97;3.60;;;3.70;99.90;;;;;;5085530;28;20643;-93
2021/03/10 05:27:03;;;;;;;6.60;6.00;;;3.70;99.90;;;;;;5093334;28;20635;-85
2021/03/10 05:32:10;;;;;;;7.57;6.40;;;3.60;99.90;;;;;;5215369;22;20319;-86
2021/03/10 05:34:45;;;;;;;14.23;12.83;;;3.60;99.90;;;;;;5018719;28;20645;-86
2021/03/10 05:37:17;;;;;;;14.47;13.07;;;3.60;99.90;;;;;;5016054;28;20206;-85
2021/03/10 05:39:50;;;;;;;11.90;9.90;;;3.60;99.90;;;;;;5017130;28;20273;-85
2021/03/10 05:42:24;;;;;;;5.17;4.73;;;3.60;99.90;;;;;;5019300;28;20213;-86
2021/03/10 05:44:57;;;;;;;3.07;2.60;;;3.50;99.90;;;;;;5017386;28;20213;-86
2021/03/10 05:47:29;;;;;;;2.60;2.30;;;3.40;99.90;;;;;;5019156;28;20198;-86
2021/03/10 05:50:00;;;;;;;3.00;2.70;;;3.40;99.90;;;;;;5019884;28;20249;-86
2021/03/10 05:52:36;;;;;;;3.33;2.20;;;3.40;99.90;;;;;;5018579;28;20202;-86
2021/03/10 05:55:12;;;;;;;1.83;1.57;;;3.40;99.90;;;;;;5018761;28;20595;-86
2021/03/10 05:57:45;;;;;;;2.13;1.50;;;3.40;99.90;;;;;;5023181;28;20209;-86
2021/03/10 06:00:18;;;;;;;2.50;1.50;;;3.30;99.90;;;;;;5018888;28;20206;-87
2021/03/10 06:02:53;;;;;;;2.07;1.53;;;3.40;99.90;;;;;;5016758;28;20205;-88
2021/03/10 06:05:25;;;;;;;2.17;1.97;;;3.40;99.90;;;;;;5024160;28;20236;-87
2021/03/10 06:08:05;;;;;;;3.13;1.80;;;3.30;99.90;;;;;;5026548;28;20701;-86
2021/03/10 06:10:44;;;;;;;3.70;2.40;;;3.30;99.90;;;;;;5035169;28;20209;-87
2021/03/10 06:13:22;;;;;;;3.53;2.77;;;3.30;99.90;;;;;;5013590;28;20647;-87
2021/03/10 06:16:02;;;;;;;2.77;1.93;;;3.30;99.90;;;;;;5024037;28;20205;-86
2021/03/10 06:18:37;;;;;;;2.13;1.50;;;3.20;99.90;;;;;;5026359;28;20224;-85
2021/03/10 06:21:10;;;;;;;2.13;1.33;;;3.20;99.90;;;;;;5030892;28;20209;-85
2021/03/10 06:23:53;;;;;;;2.27;1.30;;;3.10;99.90;;;;;;5033801;28;20715;-84
2021/03/10 06:26:24;;;;;;;1.60;1.00;;;3.10;99.90;;;;;;5028595;28;20241;-85
2021/03/10 06:28:56;;;;;;;2.60;1.50;;;3.10;99.90;;;;;;5019258;28;20225;-86
2021/03/10 06:31:29;;;;;;;2.00;1.40;;;3.10;99.90;;;;;;5018111;28;20213;-86
2021/03/10 06:34:02;;;;;;;1.83;1.30;;;2.90;99.90;;;;;;4997248;28;20522;-86
2021/03/10 06:36:34;;;;;;;1.77;1.10;;;3.00;99.90;;;;;;4997694;28;20638;-86
2021/03/10 06:39:07;;;;;;;2.53;1.30;;;2.90;99.90;;;;;;5012481;28;20273;-87
2021/03/10 06:41:39;;;;;;;2.40;1.53;;;2.90;99.90;;;;;;5016067;28;20663;-86
2021/03/10 06:44:19;;;;;;;2.50;1.33;;;2.90;99.90;;;;;;5029431;28;20209;-86
2021/03/10 06:47:03;;;;;;;1.83;1.20;;;2.90;99.90;;;;;;5038200;28;20583;-86
2021/03/10 06:49:36;;;;;;;2.67;1.30;;;2.90;99.90;;;;;;5035244;28;20212;-86
2021/03/10 06:52:11;;;;;;;2.43;1.30;;;2.90;99.90;;;;;;5014481;28;20205;-86
2021/03/10 06:54:55;;;;;;;2.13;1.60;;;2.90;99.90;;;;;;5018533;28;20292;-85
2021/03/10 06:57:26;;;;;;;1.93;1.20;;;2.90;99.90;;;;;;5020231;28;20283;-86
2021/03/10 06:59:57;;;;;;;2.93;1.40;;;2.90;99.90;;;;;;5007393;28;20210;-86
2021/03/10 07:02:30;;;;;;;2.33;1.30;;;2.90;99.90;;;;;;5011178;28;20210;-85
2021/03/10 07:05:04;;;;;;;2.20;1.40;;;2.80;99.90;;;;;;5000706;28;20675;-87
2021/03/10 07:07:35;;;;;;;2.70;1.60;;;2.80;99.90;;;;;;5005436;28;20197;-86
2021/03/10 07:10:22;;;;;;;2.90;1.30;;;2.80;99.90;;;;;;5016494;28;20210;-85
2021/03/10 07:12:58;;;;;;;5.27;1.50;;;2.80;99.90;;;;;;5016210;28;20205;-86
2021/03/10 07:15:30;;;;;;;1.60;1.03;;;2.80;99.90;;;;;;5015022;28;20217;-86
2021/03/10 07:18:10;;;;;;;2.03;1.47;;;2.70;99.90;;;;;;5014758;28;20206;-86
2021/03/10 07:20:47;;;;;;;2.20;1.23;;;2.70;99.90;;;;;;5016224;28;20300;-86
2021/03/10 07:23:21;;;;;;;1.70;1.33;;;2.70;99.90;;;;;;5014833;28;20240;-86
2021/03/10 07:25:55;;;;;;;1.80;1.30;;;2.70;99.90;;;;;;5014643;28;20331;-86
2021/03/10 07:28:30;;;;;;;1.57;1.30;;;2.70;99.90;;;;;;5015154;28;20650;-86
2021/03/10 07:31:01;;;;;;;3.03;1.00;;;2.70;99.90;;;;;;5016532;28;20217;-85
2021/03/10 07:33:32;;;;;;;1.57;1.10;;;2.70;99.90;;;;;;5013605;28;20212;-86
2021/03/10 07:36:04;;;;;;;2.60;1.30;;;2.70;99.90;;;;;;4995302;28;20225;-86
2021/03/10 07:41:40;;;;;;;2.03;1.50;;;2.60;99.90;;;;;;5015718;28;20209;-85
2021/03/10 07:44:21;;;;;;;1.83;1.20;;;2.60;99.90;;;;;;5014105;28;20224;-86
2021/03/10 07:47:04;;;;;;;4.77;0.90;;;2.60;99.90;;;;;;5014835;28;20247;-86
2021/03/10 07:49:35;;;;;;;4.13;1.67;;;2.60;99.90;;;;;;5014912;28;20205;-86
2021/03/10 07:52:08;;;;;;;2.07;1.40;;;2.60;99.90;;;;;;5016493;28;20205;-87
2021/03/10 07:54:39;;;;;;;2.03;1.47;;;2.60;99.90;;;;;;5013583;28;20205;-87
2021/03/10 07:57:13;;;;;;;1.50;1.10;;;2.50;99.90;;;;;;5014797;28;20251;-87
2021/03/10 07:59:54;;;;;;;2.00;1.40;;;2.50;99.90;;;;;;5014791;28;20267;-87
2021/03/10 08:02:26;;;;;;;1.87;1.37;;;2.50;99.90;;;;;;5014360;28;20241;-86
2021/03/10 08:04:59;;;;;;;3.70;1.60;;;2.50;99.90;;;;;;5014583;28;20205;-87
2021/03/10 08:07:32;;;;;;;1.60;1.30;;;2.50;99.90;;;;;;5015081;28;20291;-86
2021/03/10 08:10:03;;;;;;;2.10;1.07;;;2.50;99.90;;;;;;5015227;28;20236;-86
2021/03/10 08:12:38;;;;;;;1.93;1.30;;;2.40;99.90;;;;;;5015502;28;20213;-86
2021/03/10 08:15:20;;;;;;;1.93;1.10;;;2.40;99.90;;;;;;5014236;28;20205;-86
2021/03/10 08:18:02;;;;;;;1.93;1.23;;;2.40;99.90;;;;;;5013845;28;20217;-86
2021/03/10 08:20:36;;;;;;;2.27;1.53;;;2.40;99.90;;;;;;4996600;28;20611;-86
2021/03/10 08:23:08;;;;;;;2.27;1.40;;;2.40;99.90;;;;;;4996572;28;20205;-87
2021/03/10 08:25:38;;;;;;;2.90;2.00;;;2.40;99.90;;;;;;4996107;28;20262;-85
2021/03/10 08:28:14;;;;;;;9.47;6.43;;;2.40;99.90;;;;;;5007882;28;20205;-85
2021/03/10 08:30:45;;;;;;;13.10;8.83;;;2.30;99.90;;;;;;5029444;28;20249;-84
2021/03/10 08:33:15;;;;;;;13.27;8.23;;;2.30;99.90;;;;;;5033991;28;20197;-87
2021/03/10 08:35:51;;;;;;;9.07;6.23;;;2.30;99.90;;;;;;5031779;28;20220;-83
2021/03/10 08:38:22;;;;;;;5.67;3.67;;;2.20;99.90;;;;;;5015511;28;20209;-85
2021/03/10 08:40:53;;;;;;;2.60;2.03;;;2.20;99.90;;;;;;5014151;28;20666;-86
2021/03/10 08:43:25;;;;;;;3.00;1.70;;;2.30;99.90;;;;;;5013452;28;20320;-87
2021/03/10 08:46:09;;;;;;;2.17;1.50;;;2.30;99.90;;;;;;5510743;22;20384;-86
2021/03/10 08:48:39;;;;;;;1.57;1.27;;;2.20;99.90;;;;;;5110849;23;20234;-88
2021/03/10 08:51:10;;;;;;;1.67;1.20;;;2.20;99.90;;;;;;5006846;28;20249;-86
2021/03/10 08:53:41;;;;;;;1.70;1.20;;;2.20;99.90;;;;;;4997723;28;20256;-87
2021/03/10 08:56:12;;;;;;;1.70;1.40;;;2.10;99.90;;;;;;5017132;28;20217;-86
2021/03/10 08:58:54;;;;;;;4.00;1.50;;;2.10;99.90;;;;;;5017661;28;20221;-87
2021/03/10 09:01:25;;;;;;;2.97;1.63;;;2.20;99.90;;;;;;5016403;28;20304;-87
2021/03/10 09:03:56;;;;;;;2.00;1.37;;;2.20;99.90;;;;;;5013782;28;20212;-87
2021/03/10 09:06:27;;;;;;;2.93;1.80;;;2.20;99.90;;;;;;5014615;28;20683;-87
2021/03/10 09:08:58;;;;;;;2.17;1.40;;;2.20;99.90;;;;;;5018392;28;20259;-87
2021/03/10 09:11:31;;;;;;;1.83;1.33;;;2.20;99.90;;;;;;5017956;28;20201;-87
2021/03/10 09:14:03;;;;;;;2.70;1.30;;;2.10;99.90;;;;;;5018163;28;20209;-87
2021/03/10 09:16:34;;;;;;;1.70;1.37;;;2.10;99.90;;;;;;5018185;28;20209;-86
2021/03/10 09:19:05;;;;;;;2.63;1.50;;;2.10;99.90;;;;;;5024929;28;20209;-85
2021/03/10 09:21:41;;;;;;;3.73;1.67;;;2.10;99.90;;;;;;5052769;28;20209;-86
2021/03/10 09:24:12;;;;;;;2.43;1.50;;;2.20;99.90;;;;;;5057384;28;20235;-86
2021/03/10 09:26:43;;;;;;;2.97;1.73;;;2.10;99.90;;;;;;5053577;28;20225;-86
2021/03/10 09:29:14;;;;;;;2.93;1.80;;;2.10;99.90;;;;;;5025757;28;20243;-87
2021/03/10 09:31:55;;;;;;;2.83;1.60;;;2.10;99.90;;;;;;5005408;28;20234;-84
2021/03/10 09:34:26;;;;;;;3.07;1.50;;;2.10;99.90;;;;;;5021584;28;20205;-86
2021/03/10 09:36:58;;;;;;;2.40;1.33;;;2.10;99.90;;;;;;5019094;28;20257;-86
2021/03/10 09:39:28;;;;;;;2.70;1.60;;;2.10;99.90;;;;;;5018372;28;20213;-86
2021/03/10 09:42:14;;;;;;;2.97;1.63;;;2.00;99.90;;;;;;5017835;28;20220;-85
2021/03/10 09:44:50;;;;;;;1.90;1.50;;;2.00;99.90;;;;;;5018528;28;20619;-85
2021/03/10 09:47:25;;;;;;;2.13;1.43;;;2.00;99.90;;;;;;5016272;28;20309;-87
2021/03/10 09:49:58;;;;;;;2.60;1.50;;;1.90;99.90;;;;;;5017248;28;20217;-86
2021/03/10 09:52:39;;;;;;;2.40;1.30;;;1.90;99.90;;;;;;5017285;28;20213;-86
2021/03/10 09:55:12;;;;;;;1.97;1.40;;;1.90;99.90;;;;;;5016042;28;20213;-86
2021/03/10 09:57:43;;;;;;;2.33;1.53;;;1.90;99.90;;;;;;4996503;28;20241;-85
2021/03/10 10:00:22;;;;;;;2.17;1.40;;;1.90;99.90;;;;;;4996678;28;20289;-86
2021/03/10 10:02:53;;;;;;;2.60;1.70;;;1.90;99.90;;;;;;4997212;28;20633;-86
2021/03/10 10:05:26;;;;;;;1.40;1.30;;;1.80;99.90;;;;;;5008458;28;20221;-86
2021/03/10 10:07:58;;;;;;;1.80;1.40;;;1.80;99.90;;;;;;5016135;28;20245;-86
2021/03/10 10:10:29;;;;;;;2.07;1.33;;;1.70;99.90;;;;;;5021253;28;20212;-86
2021/03/10 10:13:00;;;;;;;2.50;1.53;;;1.70;99.90;;;;;;5005354;28;20207;-87
2021/03/10 10:15:34;;;;;;;2.70;1.83;;;1.70;99.90;;;;;;5020776;28;20229;-87
2021/03/10 10:18:07;;;;;;;3.37;1.80;;;1.60;99.90;;;;;;5014930;28;20571;-87
2021/03/10 10:20:38;;;;;;;1.90;1.50;;;1.60;99.90;;;;;;5017374;28;20213;-88
2021/03/10 10:23:08;;;;;;;2.90;1.50;;;1.60;99.90;;;;;;5003710;28;20213;-88
2021/03/10 10:25:39;;;;;;;1.70;1.30;;;1.60;99.90;;;;;;4998097;28;20214;-88
2021/03/10 10:28:10;;;;;;;2.53;1.30;;;1.60;99.90;;;;;;4999427;28;20643;-88
2021/03/10 10:30:43;;;;;;;2.63;1.77;;;1.70;99.90;;;;;;4998261;28;20236;-88
2021/03/10 10:33:14;;;;;;;1.63;1.30;;;1.60;99.90;;;;;;4995067;28;20270;-88
2021/03/10 10:35:45;;;;;;;1.40;1.20;;;1.50;99.90;;;;;;4981669;28;20199;-87
2021/03/10 10:38:15;;;;;;;1.60;1.27;;;1.50;99.90;;;;;;4976264;28;20285;-87
2021/03/10 10:40:45;;;;;;;4.07;1.50;;;1.50;99.90;;;;;;4989090;28;20211;-87
2021/03/10 10:43:16;;;;;;;1.57;1.23;;;1.50;99.90;;;;;;4997755;28;20558;-87
2021/03/10 10:45:49;;;;;;;2.73;1.70;;;1.40;99.90;;;;;;5002064;28;20273;-87
2021/03/10 10:48:19;;;;;;;3.33;1.40;;;1.50;99.90;;;;;;4996601;28;20724;-87
2021/03/10 10:50:52;;;;;;;2.97;1.50;;;1.40;99.90;;;;;;4991455;28;20221;-87
2021/03/10 10:53:22;;;;;;;2.90;1.50;;;1.30;99.90;;;;;;4999264;28;20265;-87
2021/03/10 10:55:53;;;;;;;2.00;1.50;;;1.30;99.90;;;;;;4996145;28;20328;-87
2021/03/10 10:58:24;;;;;;;2.80;1.73;;;1.30;99.90;;;;;;4993523;28;20213;-87
2021/03/10 11:00:56;;;;;;;2.50;2.00;;;1.30;99.90;;;;;;4996240;28;20210;-87
2021/03/10 11:03:27;;;;;;;2.93;2.07;;;1.30;99.90;;;;;;4994711;28;20214;-87
2021/03/10 11:05:58;;;;;;;2.37;1.77;;;1.30;99.90;;;;;;4977545;28;20214;-87
2021/03/10 11:08:29;;;;;;;2.30;1.50;;;1.20;99.90;;;;;;5013539;28;20605;-87
2021/03/10 11:11:01;;;;;;;2.50;2.03;;;1.30;99.90;;;;;;5015339;28;20202;-87
2021/03/10 11:13:42;;;;;;;2.03;1.60;;;1.30;99.90;;;;;;5015654;28;20596;-88
2021/03/10 11:16:14;;;;;;;2.77;2.10;;;1.30;99.90;;;;;;5001514;28;20272;-89
2021/03/10 11:18:44;;;;;;;5.60;1.90;;;1.20;99.90;;;;;;4995544;28;20218;-87
2021/03/10 11:21:15;;;;;;;3.10;2.20;;;1.30;99.90;;;;;;4996934;28;20309;-88
2021/03/10 11:23:51;;;;;;;2.07;1.80;;;1.30;99.90;;;;;;5002865;28;21845;-88
2021/03/10 11:26:22;;;;;;;2.63;2.03;;;1.30;99.90;;;;;;5015380;28;20226;-88
2021/03/10 11:28:52;;;;;;;2.50;1.90;;;1.20;99.90;;;;;;5001190;28;20620;-88
2021/03/10 11:31:24;;;;;;;2.67;1.60;;;1.30;99.90;;;;;;4998766;28;20210;-88
2021/03/10 11:33:56;;;;;;;3.03;1.67;;;1.30;99.90;;;;;;5002470;28;20286;-86
2021/03/10 11:36:27;;;;;;;2.70;1.80;;;1.30;99.90;;;;;;5018020;28;20221;-87
2021/03/10 11:38:58;;;;;;;2.20;1.90;;;1.30;99.90;;;;;;5018540;28;20210;-87
2021/03/10 11:41:29;;;;;;;2.97;2.00;;;1.30;99.90;;;;;;5015027;28;20216;-87
2021/03/10 11:44:00;;;;;;;3.77;1.80;;;1.30;99.90;;;;;;5016023;28;20300;-87
2021/03/10 11:46:32;;;;;;;3.90;2.07;;;1.30;99.90;;;;;;5008213;28;20291;-88
2021/03/10 11:49:03;;;;;;;3.30;1.90;;;1.20;99.90;;;;;;4995793;28;20237;-88
2021/03/10 11:51:34;;;;;;;3.60;2.00;;;1.20;99.90;;;;;;5007497;28;20209;-88
2021/03/10 11:54:07;;;;;;;2.80;1.70;;;1.20;99.90;;;;;;5015547;28;20212;-88
2021/03/10 11:56:38;;;;;;;2.47;2.03;;;1.20;99.90;;;;;;4994919;28;20209;-87
2021/03/10 11:59:09;;;;;;;2.83;1.80;;;1.10;99.90;;;;;;4995596;28;20224;-87
2021/03/10 12:01:41;;;;;;;3.97;1.90;;;1.10;99.90;;;;;;4995843;28;20199;-85
2021/03/10 12:04:12;;;;;;;2.87;1.93;;;1.10;99.90;;;;;;4995608;28;20217;-87
2021/03/10 12:06:43;;;;;;;2.90;1.83;;;1.10;99.90;;;;;;4994018;28;20307;-87
2021/03/10 12:09:14;;;;;;;3.67;2.47;;;1.10;99.90;;;;;;5007190;28;20281;-87
2021/03/10 12:11:45;;;;;;;4.00;2.40;;;1.10;99.90;;;;;;5015291;28;20213;-87
2021/03/10 12:14:24;;;;;;;2.90;2.03;;;1.10;99.90;;;;;;5015229;28;20216;-87
2021/03/10 12:16:57;;;;;;;4.43;2.40;;;1.20;99.90;;;;;;5014556;28;20347;-88
2021/03/10 12:19:28;;;;;;;4.23;2.30;;;1.20;99.90;;;;;;5015058;28;20208;-88
2021/03/10 12:21:59;;;;;;;4.10;2.20;;;1.30;99.90;;;;;;5014761;28;20237;-87
2021/03/10 12:24:30;;;;;;;5.00;2.70;;;1.40;99.90;;;;;;5014831;28;20544;-87
2021/03/10 12:27:01;;;;;;;4.87;2.37;;;1.40;99.90;;;;;;5013721;28;20240;-86
2021/03/10 12:29:32;;;;;;;2.40;2.00;;;1.50;99.90;;;;;;5015245;28;20244;-87
2021/03/10 12:32:05;;;;;;;3.27;2.10;;;1.60;99.90;;;;;;5015275;28;20227;-86
2021/03/10 12:34:36;;;;;;;3.60;2.00;;;1.70;99.90;;;;;;5010265;28;20215;-86
2021/03/10 12:37:06;;;;;;;3.20;2.00;;;1.80;99.90;;;;;;4976437;28;20722;-88
2021/03/10 12:39:38;;;;;;;3.10;2.23;;;1.90;99.90;;;;;;4996152;28;20209;-85
2021/03/10 12:42:10;;;;;;;2.33;1.90;;;1.90;99.90;;;;;;5018393;28;20206;-87
2021/03/10 12:44:46;;;;;;;5.93;1.70;;;2.00;99.90;;;;;;5006503;28;20245;-87
2021/03/10 12:47:19;;;;;;;3.20;1.80;;;2.10;99.90;;;;;;4988642;28;20223;-87
2021/03/10 12:49:50;;;;;;;2.90;1.97;;;2.20;99.90;;;;;;5003139;28;20221;-86
2021/03/10 12:52:22;;;;;;;2.00;1.60;;;2.20;99.90;;;;;;5001071;28;20265;-86
2021/03/10 12:54:52;;;;;;;3.23;1.83;;;2.30;99.90;;;;;;4998326;28;20298;-86
2021/03/10 12:57:24;;;;;;;2.13;1.50;;;2.30;99.90;;;;;;5000984;28;20202;-86
2021/03/10 12:59:55;;;;;;;4.40;2.03;;;2.30;99.90;;;;;;5000188;28;20639;-86
2021/03/10 13:02:28;;;;;;;2.03;1.47;;;2.20;99.90;;;;;;5010167;28;20217;-86
2021/03/10 13:04:59;;;;;;;2.63;1.77;;;2.20;99.90;;;;;;4994495;28;20714;-86
2021/03/10 13:07:30;;;;;;;2.57;1.67;;;2.10;99.90;;;;;;4976820;28;20239;-86
2021/03/10 13:10:02;;;;;;;2.17;1.50;;;2.10;99.90;;;;;;4983734;28;20245;-86
2021/03/10 13:12:34;;;;;;;3.00;1.53;;;2.00;99.90;;;;;;5017821;28;20216;-86
2021/03/10 13:15:13;;;;;;;2.07;1.60;;;2.00;99.90;;;;;;5017799;28;20240;-86
2021/03/10 13:17:50;;;;;;;2.43;1.50;;;1.90;99.90;;;;;;5018439;28;20213;-87
2021/03/10 13:20:21;;;;;;;2.90;1.70;;;1.90;99.90;;;;;;5018870;28;20205;-86
2021/03/10 13:22:52;;;;;;;2.50;1.77;;;1.90;99.90;;;;;;5024594;28;20225;-86
2021/03/10 13:25:22;;;;;;;1.63;1.40;;;1.90;99.90;;;;;;5019674;28;20232;-86
2021/03/10 13:27:53;;;;;;;3.20;2.00;;;2.00;99.90;;;;;;5016584;28;20237;-86
2021/03/10 13:30:24;;;;;;;3.53;1.90;;;2.00;99.90;;;;;;5017804;28;20202;-86
2021/03/10 13:32:56;;;;;;;2.83;1.90;;;2.00;99.90;;;;;;5020293;28;20214;-87
2021/03/10 13:35:26;;;;;;;2.23;1.70;;;2.00;99.90;;;;;;5018163;28;20275;-87
2021/03/10 13:37:57;;;;;;;2.53;1.63;;;2.00;99.90;;;;;;5003694;28;20272;-86
2021/03/10 13:40:27;;;;;;;2.53;2.00;;;2.10;99.90;;;;;;4997889;28;20249;-86
2021/03/10 13:42:59;;;;;;;2.00;1.70;;;2.10;99.90;;;;;;4998630;28;20210;-86
2021/03/10 13:45:32;;;;;;;2.87;1.63;;;2.10;99.90;;;;;;5002352;28;20276;-87